aviador You're here:

MDST Decoded Metar

SANTIAGO in DOMINICAN REPUBLIC
Report Time2018-05-23 07:00:00
UTC Time2018-05-23 07:11:07
Flight Rules vfr VFR
Wind120° at 10 kt
W.Decomp.*RWY 11: 9.4 kt HW 3.4 kt RCW
W.Rank120° ranks 3
Current wind is above 120° avg. (8.8)
Visibility9999 m
Phenomena:N/A
Clouds:Scattered 016 Hf
Scattered 300 Hf
Expected CloudBase > 800 ft AGL from Temp-Dew spread
CeilingNone
Temp24°C (ISA +10)
Dew Point22°C (89% RH)
QNH1016 hPa
Density Alt1,991 ft
Elevation567 ft
Report Wrong Elevation
Raw Report
MDST 230700Z 12010KT 9999 SCT016 SCT300 24/22 Q1016=

Extra information for MDST:More info

Metar Taf Metar & Taf Last 4 Metars F.Rules Stats Wind Profile Meteogram Temp Stats Airport Information Weather charts Add Link Nearby VenuesMetar ALERT Operation Metar Decoded Social comments